Mud Butte, SD (57758)

12:19 PM MDT on August 29, 2014 (GMT -0600)
Black Hills-Ice | Change Station
CLOSE
Current Station
Airport
Location: Spearfish,
Elevation: 3898 ft
Nearby Weather Stations

Elev 3898 ft 44.48 °N, 103.78 °W | Updated 44 minutes ago

Clear
Clear
66 °F
Feels Like 66 °F
N
10
Wind Variable Wind from NW

Today
High -- | Low -- °F
--% Chance of Precip.
Yesterday
High -- | Low -- °F
Precip. -- in
6:09 AM 7:33 PM
Waxing Crescent, 15% visible
Pressure 30.07 in
Visibility 10.0 miles
Clouds Clear
Dew Point 54 °F
Humidity 64%
Rainfall 0.00 in
Snow Depth Not available.
UV 8 out of 12
Pollen 9.20 out of 12
Air Quality Not available.
Flu Activity Not available.
METAR KSPF 291735Z AUTO 31009KT 10SM CLR 19/12 A3007 RMK AO2

More Conditions Fewer Conditions

Pressure 30.07 in
Visibility 10.0 miles
Clouds Clear
Dew Point 54 °F
Humidity 64%
Rainfall 0.00 in
Snow Depth Not available.
UV 8 out of 12
Pollen 9.20 out of 12
Air Quality Not available.
Flu Activity Not available.
METAR KSPF 291735Z AUTO 31009KT 10SM CLR 19/12 A3007 RMK AO2

More Conditions Fewer Conditions

10-Day Weather Forecast

Almanac

Astronomy

Aug. 29, 2014 Rise Set
Actual Time 6:09 AM MDT 7:33 PM MDT
Civil Twilight 5:39 AM MDT 8:04 PM MDT
Nautical Twilight 5:02 AM MDT 8:40 PM MDT
Astronomical Twilight 4:22 AM MDT 9:20 PM MDT
Moon 10:13 AM MDT 9:19 PM MDT
Length of Visible Light 14h 25m
Length of Day
13h 24m
Tomorrow will be 3m 1s shorter.
Waxing Crescent, 15% of the Moon is Illuminated
Today
Waxing Crescent
Sep 2
First Quarter
Sep 8
Full
Sep 15
Last Quarter
Sep 24
New

Today's Extremes

State Highs State Lows

Community

WunderPhotos

Upload Photos

1,748,309 photos uploaded!

Nearby

Snow Depth

Station Depth Elevation
Blind Park 0 in 6890 ft

Earthquake Activity

City Distance Mag. Time & Date
No recent earthquake activity has been reported nearby.
Minimum magnitude displayed is 2.5.

Coastal Water Temperatures

Place Temperature
No Stations Reporting

Nearby Weather Stations